Main page
Satellite images 15-day forecastsClimateMarine weather Cyclones Lightning AirportsFAQ Newsletter About
Weather : Europe Africa North America South America Asia Australia-Oceania Others
Languages Contact

Bucharest, Romania

Henri Coandă

latitude: 44-33N, longitude: 026-06E, elevation: 95 m


METAR: LROP 301730Z VRB01KT CAVOK 15/14 Q1023 NOSIG
TAF: LROP 301700Z 3018/0118 VRB04KT CAVOK TEMPO 0101/0105 3000 BR BECMG 0110/0112 09010KT

Time: 20:50 (17:50 UTC)

Current weather observation

The report was made 20 minutes ago, at 17:30 UTC  
Wind 01 kt from variable directions
Temperature 15°C
Humidity 94%
Pressure 1023 hPa
Visibility 10 km or more
no clouds below 1500 m and no cumulonimbus

Change units

Forecast

The report was made 50 minutes ago, at 17:00 UTC  
Forecast valid from 30 at 18 UTC to 01 at 18 UTC
Wind 04 kt from variable directions
Visibility 10 km or more
no clouds below 1500 m and no cumulonimbus
Temporary
from 01 at 01 UTC to 01 at 05 UTC
Visibility 3000 m
mist
Becoming
from 01 at 10 UTC to 01 at 12 UTC
Wind 10 kt from the East
The information on this site is subject to a disclaimer
Weather : Europe Africa North America South America Asia Australia-Oceania Others
Satellite images 15-day forecastsClimateMarine weather Cyclones Lightning AirportsFAQ Languages Contact Newsletter About